map of DPG home
DPG - Airport
Location
City:  Dugway Proving Ground, Utah, United States
Name:Michael AAF Airport
Old (Alt.):Dugway Proving Ground
ICAO:KDPG
IATA:DPG
FAA LID:DPG

Details
Type:Airport (Airfield)
Use:Military
Latitude:4011'51"N (40.197382)
Longitude:11256'06"W (-112.935053)
Datum:WGS 1984
Elevation:4350 ft (1326 m)
Variation:11.62E (WMM2015v2 magnetic declination)
-0.09 annual change
Runways:1
Longest:10999 × 150 ft (3352 × 45.5 m), paved

Time
Time Zone:UTC-7 (DST-6)
Local Time:

Weather
METAR:KDPG 041350Z 18014G20KT 35SM FEW060 SCT090 BKN180 05/M01 A2959 RMK SLP002 T00451014 FIRST

Related Locations
Nearby:
Farthest:RRG: 11005 mi / 17711 km
Plaine Corail [Sir Gatan Duval Airport (Plaine Corail Airport)], Rodrigues Island, MU

Find:

   beyond  
but within

Other Information
Maps:
NOTAMs:
Links:
Sources:

  
  • flag of United States
  • flag of Utah
  

Airport Diagram

Airport diagram for DPG

Airport diagram PDF from FAA

Sectional Chart

Flight Planning
at skyvector.com

Satellite Image

Google Maps Satellite view

 

Copyright © 2004-2019 Karl L. Swartz. All rights reserved.
The Great Circle Mapper name and logo are trademarks of the Great Circle Mapper.
All other trademarks mentioned herein belong to their respective owners.
Please see credits for attibutions and further copyright information.

  Follow gcmap on Facebook Follow gcmap on Twitter GCmap on LinkedIn

hCard Microformat

Geo Microformat